sensor_id;sensor_type;location;lat;lon;timestamp;P1;durP1;ratioP1;P2;durP2;ratioP2
36457;SDS011;22480;50.546;12.292;2022-11-14T00:01:36;145.37;;;50.43;;
36457;SDS011;22480;50.546;12.292;2022-11-14T00:04:20;160.30;;;52.20;;
36457;SDS011;22480;50.546;12.292;2022-11-14T00:07:04;161.57;;;53.20;;
36457;SDS011;22480;50.546;12.292;2022-11-14T00:09:48;157.67;;;52.77;;
36457;SDS011;22480;50.546;12.292;2022-11-14T00:12:32;154.83;;;49.47;;
36457;SDS011;22480;50.546;12.292;2022-11-14T00:15:17;154.30;;;51.27;;
36457;SDS011;22480;50.546;12.292;2022-11-14T00:18:01;153.77;;;50.73;;
36457;SDS011;22480;50.546;12.292;2022-11-14T00:20:47;145.33;;;49.67;;
36457;SDS011;22480;50.546;12.292;2022-11-14T00:23:31;172.37;;;51.70;;
36457;SDS011;22480;50.546;12.292;2022-11-14T00:26:15;139.60;;;47.27;;
36457;SDS011;22480;50.546;12.292;2022-11-14T00:28:59;145.73;;;47.63;;
36457;SDS011;22480;50.546;12.292;2022-11-14T00:31:44;140.03;;;47.27;;
36457;SDS011;22480;50.546;12.292;2022-11-14T00:34:28;130.97;;;44.73;;
36457;SDS011;22480;50.546;12.292;2022-11-14T00:37:12;135.40;;;42.50;;
36457;SDS011;22480;50.546;12.292;2022-11-14T00:39:56;141.17;;;43.77;;
36457;SDS011;22480;50.546;12.292;2022-11-14T00:42:40;129.53;;;43.37;;
36457;SDS011;22480;50.546;12.292;2022-11-14T00:45:24;130.73;;;44.23;;
36457;SDS011;22480;50.546;12.292;2022-11-14T00:48:08;157.60;;;52.37;;
36457;SDS011;22480;50.546;12.292;2022-11-14T00:50:53;146.87;;;47.37;;
36457;SDS011;22480;50.546;12.292;2022-11-14T00:53:37;125.50;;;42.50;;
36457;SDS011;22480;50.546;12.292;2022-11-14T00:56:21;115.23;;;40.07;;
36457;SDS011;22480;50.546;12.292;2022-11-14T00:59:05;113.97;;;39.93;;
36457;SDS011;22480;50.546;12.292;2022-11-14T01:01:49;93.57;;;37.27;;
36457;SDS011;22480;50.546;12.292;2022-11-14T01:04:34;119.23;;;43.17;;
36457;SDS011;22480;50.546;12.292;2022-11-14T01:07:18;119.43;;;44.83;;
36457;SDS011;22480;50.546;12.292;2022-11-14T01:10:02;136.43;;;46.27;;
36457;SDS011;22480;50.546;12.292;2022-11-14T01:12:47;126.63;;;44.20;;
36457;SDS011;22480;50.546;12.292;2022-11-14T01:15:31;96.73;;;36.90;;
36457;SDS011;22480;50.546;12.292;2022-11-14T01:18:17;89.00;;;33.67;;
36457;SDS011;22480;50.546;12.292;2022-11-14T01:21:10;70.17;;;30.63;;
36457;SDS011;22480;50.546;12.292;2022-11-14T01:23:55;71.03;;;30.03;;
36457;SDS011;22480;50.546;12.292;2022-11-14T01:26:39;83.13;;;33.77;;
36457;SDS011;22480;50.546;12.292;2022-11-14T01:29:24;73.97;;;31.77;;
36457;SDS011;22480;50.546;12.292;2022-11-14T01:32:08;72.18;;;32.10;;
36457;SDS011;22480;50.546;12.292;2022-11-14T01:34:52;65.28;;;30.83;;
36457;SDS011;22480;50.546;12.292;2022-11-14T01:37:37;69.50;;;29.67;;
36457;SDS011;22480;50.546;12.292;2022-11-14T01:40:21;77.82;;;32.47;;
36457;SDS011;22480;50.546;12.292;2022-11-14T01:46:03;59.38;;;28.42;;
36457;SDS011;22480;50.546;12.292;2022-11-14T01:51:56;44.28;;;22.98;;
36457;SDS011;22480;50.546;12.292;2022-11-14T01:54:48;45.85;;;22.38;;
36457;SDS011;22480;50.546;12.292;2022-11-14T01:57:35;45.72;;;23.42;;
36457;SDS011;22480;50.546;12.292;2022-11-14T02:00:23;40.33;;;22.25;;
36457;SDS011;22480;50.546;12.292;2022-11-14T02:03:07;45.08;;;23.60;;
36457;SDS011;22480;50.546;12.292;2022-11-14T02:05:52;43.20;;;21.90;;
36457;SDS011;22480;50.546;12.292;2022-11-14T02:08:38;41.20;;;21.95;;
36457;SDS011;22480;50.546;12.292;2022-11-14T02:11:23;58.83;;;30.38;;
36457;SDS011;22480;50.546;12.292;2022-11-14T02:14:11;62.67;;;30.17;;
36457;SDS011;22480;50.546;12.292;2022-11-14T02:16:55;65.28;;;31.77;;
36457;SDS011;22480;50.546;12.292;2022-11-14T02:19:44;39.05;;;21.45;;
36457;SDS011;22480;50.546;12.292;2022-11-14T02:22:28;35.42;;;19.73;;
36457;SDS011;22480;50.546;12.292;2022-11-14T02:25:13;29.27;;;17.35;;
36457;SDS011;22480;50.546;12.292;2022-11-14T02:28:00;33.50;;;18.35;;
36457;SDS011;22480;50.546;12.292;2022-11-14T02:30:45;31.98;;;18.70;;
36457;SDS011;22480;50.546;12.292;2022-11-14T02:33:29;36.17;;;20.27;;
36457;SDS011;22480;50.546;12.292;2022-11-14T02:36:13;29.60;;;17.63;;
36457;SDS011;22480;50.546;12.292;2022-11-14T02:38:57;34.63;;;18.08;;
36457;SDS011;22480;50.546;12.292;2022-11-14T02:41:41;30.02;;;17.23;;
36457;SDS011;22480;50.546;12.292;2022-11-14T02:44:25;39.03;;;22.95;;
36457;SDS011;22480;50.546;12.292;2022-11-14T02:47:10;50.63;;;27.85;;
36457;SDS011;22480;50.546;12.292;2022-11-14T02:49:54;39.28;;;21.45;;
36457;SDS011;22480;50.546;12.292;2022-11-14T02:52:39;27.27;;;17.27;;
36457;SDS011;22480;50.546;12.292;2022-11-14T02:55:24;23.43;;;15.67;;
36457;SDS011;22480;50.546;12.292;2022-11-14T02:58:08;23.45;;;16.10;;
36457;SDS011;22480;50.546;12.292;2022-11-14T03:00:53;23.48;;;16.02;;
36457;SDS011;22480;50.546;12.292;2022-11-14T03:03:37;25.75;;;15.77;;
36457;SDS011;22480;50.546;12.292;2022-11-14T03:06:21;23.27;;;15.02;;
36457;SDS011;22480;50.546;12.292;2022-11-14T03:09:05;23.90;;;15.77;;
36457;SDS011;22480;50.546;12.292;2022-11-14T03:11:50;22.20;;;14.05;;
36457;SDS011;22480;50.546;12.292;2022-11-14T03:14:34;20.15;;;13.23;;
36457;SDS011;22480;50.546;12.292;2022-11-14T03:17:18;17.52;;;12.27;;
36457;SDS011;22480;50.546;12.292;2022-11-14T03:20:02;17.80;;;12.85;;
36457;SDS011;22480;50.546;12.292;2022-11-14T03:22:47;20.13;;;12.77;;
36457;SDS011;22480;50.546;12.292;2022-11-14T03:25:32;18.75;;;12.60;;
36457;SDS011;22480;50.546;12.292;2022-11-14T03:28:16;19.75;;;11.65;;
36457;SDS011;22480;50.546;12.292;2022-11-14T03:31:00;17.73;;;11.63;;
36457;SDS011;22480;50.546;12.292;2022-11-14T03:33:44;18.30;;;11.43;;
36457;SDS011;22480;50.546;12.292;2022-11-14T03:36:28;17.52;;;11.30;;
36457;SDS011;22480;50.546;12.292;2022-11-14T03:39:12;17.13;;;12.40;;
36457;SDS011;22480;50.546;12.292;2022-11-14T03:41:56;19.77;;;12.02;;
36457;SDS011;22480;50.546;12.292;2022-11-14T03:44:41;19.42;;;11.70;;
36457;SDS011;22480;50.546;12.292;2022-11-14T03:47:25;16.63;;;10.75;;
36457;SDS011;22480;50.546;12.292;2022-11-14T03:50:09;15.75;;;11.50;;
36457;SDS011;22480;50.546;12.292;2022-11-14T03:52:53;17.52;;;11.57;;
36457;SDS011;22480;50.546;12.292;2022-11-14T03:55:37;17.23;;;12.75;;
36457;SDS011;22480;50.546;12.292;2022-11-14T03:58:22;15.27;;;11.65;;
36457;SDS011;22480;50.546;12.292;2022-11-14T04:01:07;14.95;;;10.90;;
36457;SDS011;22480;50.546;12.292;2022-11-14T04:03:51;15.60;;;11.40;;
36457;SDS011;22480;50.546;12.292;2022-11-14T04:06:35;15.95;;;11.65;;
36457;SDS011;22480;50.546;12.292;2022-11-14T04:09:19;16.40;;;11.50;;
36457;SDS011;22480;50.546;12.292;2022-11-14T04:12:03;17.67;;;12.25;;
36457;SDS011;22480;50.546;12.292;2022-11-14T04:14:48;16.33;;;11.25;;
36457;SDS011;22480;50.546;12.292;2022-11-14T04:17:32;16.65;;;12.02;;
36457;SDS011;22480;50.546;12.292;2022-11-14T04:20:16;17.33;;;12.07;;
36457;SDS011;22480;50.546;12.292;2022-11-14T04:23:00;16.17;;;11.43;;
36457;SDS011;22480;50.546;12.292;2022-11-14T04:25:44;17.85;;;12.82;;
36457;SDS011;22480;50.546;12.292;2022-11-14T04:28:29;15.98;;;11.38;;
36457;SDS011;22480;50.546;12.292;2022-11-14T04:31:13;17.60;;;12.18;;
36457;SDS011;22480;50.546;12.292;2022-11-14T04:33:57;18.83;;;12.15;;
36457;SDS011;22480;50.546;12.292;2022-11-14T04:36:41;18.38;;;12.02;;
36457;SDS011;22480;50.546;12.292;2022-11-14T04:39:26;17.70;;;12.52;;
36457;SDS011;22480;50.546;12.292;2022-11-14T04:42:10;14.68;;;11.50;;
36457;SDS011;22480;50.546;12.292;2022-11-14T04:44:54;17.55;;;11.98;;
36457;SDS011;22480;50.546;12.292;2022-11-14T04:47:40;21.30;;;13.85;;
36457;SDS011;22480;50.546;12.292;2022-11-14T04:50:24;18.25;;;13.02;;
36457;SDS011;22480;50.546;12.292;2022-11-14T04:53:08;19.05;;;13.20;;
36457;SDS011;22480;50.546;12.292;2022-11-14T04:55:52;20.52;;;11.77;;
36457;SDS011;22480;50.546;12.292;2022-11-14T04:58:36;17.42;;;11.80;;
36457;SDS011;22480;50.546;12.292;2022-11-14T05:01:20;17.52;;;11.80;;
36457;SDS011;22480;50.546;12.292;2022-11-14T05:04:05;17.27;;;11.93;;
36457;SDS011;22480;50.546;12.292;2022-11-14T05:06:49;16.67;;;11.18;;
36457;SDS011;22480;50.546;12.292;2022-11-14T05:09:33;16.73;;;11.65;;
36457;SDS011;22480;50.546;12.292;2022-11-14T05:12:19;18.30;;;12.70;;
36457;SDS011;22480;50.546;12.292;2022-11-14T05:15:03;20.63;;;12.85;;
36457;SDS011;22480;50.546;12.292;2022-11-14T05:17:48;17.42;;;12.70;;
36457;SDS011;22480;50.546;12.292;2022-11-14T05:20:32;19.40;;;11.95;;
36457;SDS011;22480;50.546;12.292;2022-11-14T05:23:19;19.23;;;13.75;;
36457;SDS011;22480;50.546;12.292;2022-11-14T05:26:06;19.23;;;12.87;;
36457;SDS011;22480;50.546;12.292;2022-11-14T05:28:52;19.90;;;13.00;;
36457;SDS011;22480;50.546;12.292;2022-11-14T05:31:37;18.48;;;12.85;;
36457;SDS011;22480;50.546;12.292;2022-11-14T05:34:21;18.77;;;13.63;;
36457;SDS011;22480;50.546;12.292;2022-11-14T05:37:06;21.63;;;14.80;;
36457;SDS011;22480;50.546;12.292;2022-11-14T05:39:51;20.67;;;13.25;;
36457;SDS011;22480;50.546;12.292;2022-11-14T05:42:35;20.45;;;13.15;;
36457;SDS011;22480;50.546;12.292;2022-11-14T05:45:19;17.55;;;11.77;;
36457;SDS011;22480;50.546;12.292;2022-11-14T05:48:03;19.25;;;13.27;;
36457;SDS011;22480;50.546;12.292;2022-11-14T05:50:47;20.77;;;13.38;;
36457;SDS011;22480;50.546;12.292;2022-11-14T05:53:32;18.40;;;12.98;;
36457;SDS011;22480;50.546;12.292;2022-11-14T05:56:17;18.65;;;13.32;;
36457;SDS011;22480;50.546;12.292;2022-11-14T05:59:01;19.50;;;13.27;;
36457;SDS011;22480;50.546;12.292;2022-11-14T06:01:45;18.60;;;13.32;;
36457;SDS011;22480;50.546;12.292;2022-11-14T06:04:29;20.05;;;13.32;;
36457;SDS011;22480;50.546;12.292;2022-11-14T06:07:13;17.48;;;12.80;;
36457;SDS011;22480;50.546;12.292;2022-11-14T06:09:57;17.20;;;11.70;;
36457;SDS011;22480;50.546;12.292;2022-11-14T06:12:41;20.00;;;12.82;;
36457;SDS011;22480;50.546;12.292;2022-11-14T06:15:25;16.33;;;12.55;;
36457;SDS011;22480;50.546;12.292;2022-11-14T06:18:10;18.95;;;13.50;;
36457;SDS011;22480;50.546;12.292;2022-11-14T06:20:58;15.50;;;11.10;;
36457;SDS011;22480;50.546;12.292;2022-11-14T06:23:44;18.17;;;12.20;;
36457;SDS011;22480;50.546;12.292;2022-11-14T06:26:30;15.35;;;11.18;;
36457;SDS011;22480;50.546;12.292;2022-11-14T06:29:14;15.82;;;11.30;;
36457;SDS011;22480;50.546;12.292;2022-11-14T06:31:58;17.75;;;12.38;;
36457;SDS011;22480;50.546;12.292;2022-11-14T06:34:43;15.25;;;11.70;;
36457;SDS011;22480;50.546;12.292;2022-11-14T06:37:27;15.55;;;11.43;;
36457;SDS011;22480;50.546;12.292;2022-11-14T06:40:11;17.20;;;12.18;;
36457;SDS011;22480;50.546;12.292;2022-11-14T06:42:55;16.13;;;11.98;;
36457;SDS011;22480;50.546;12.292;2022-11-14T06:45:39;18.33;;;13.18;;
36457;SDS011;22480;50.546;12.292;2022-11-14T06:48:24;17.45;;;12.45;;
36457;SDS011;22480;50.546;12.292;2022-11-14T06:51:09;16.80;;;12.05;;
36457;SDS011;22480;50.546;12.292;2022-11-14T06:53:54;15.57;;;11.18;;
36457;SDS011;22480;50.546;12.292;2022-11-14T06:56:39;17.92;;;12.48;;
36457;SDS011;22480;50.546;12.292;2022-11-14T06:59:23;15.27;;;11.90;;
36457;SDS011;22480;50.546;12.292;2022-11-14T07:02:10;17.38;;;11.35;;
36457;SDS011;22480;50.546;12.292;2022-11-14T07:04:55;14.23;;;10.43;;
36457;SDS011;22480;50.546;12.292;2022-11-14T07:07:39;15.32;;;10.80;;
36457;SDS011;22480;50.546;12.292;2022-11-14T07:10:24;13.85;;;11.02;;
36457;SDS011;22480;50.546;12.292;2022-11-14T07:13:08;14.40;;;11.07;;
36457;SDS011;22480;50.546;12.292;2022-11-14T07:15:53;13.75;;;10.90;;
36457;SDS011;22480;50.546;12.292;2022-11-14T07:18:38;17.15;;;11.90;;
36457;SDS011;22480;50.546;12.292;2022-11-14T07:21:21;17.23;;;11.43;;
36457;SDS011;22480;50.546;12.292;2022-11-14T07:24:07;13.18;;;10.18;;
36457;SDS011;22480;50.546;12.292;2022-11-14T07:26:51;17.33;;;11.43;;
36457;SDS011;22480;50.546;12.292;2022-11-14T07:29:35;14.13;;;9.90;;
36457;SDS011;22480;50.546;12.292;2022-11-14T07:32:19;16.55;;;11.60;;
36457;SDS011;22480;50.546;12.292;2022-11-14T07:35:03;14.68;;;10.85;;
36457;SDS011;22480;50.546;12.292;2022-11-14T07:37:48;13.07;;;9.75;;
36457;SDS011;22480;50.546;12.292;2022-11-14T07:40:32;16.23;;;10.88;;
36457;SDS011;22480;50.546;12.292;2022-11-14T07:43:16;14.35;;;10.35;;
36457;SDS011;22480;50.546;12.292;2022-11-14T07:46:05;11.98;;;9.25;;
36457;SDS011;22480;50.546;12.292;2022-11-14T07:48:54;13.48;;;9.88;;
36457;SDS011;22480;50.546;12.292;2022-11-14T07:51:38;12.77;;;9.25;;
36457;SDS011;22480;50.546;12.292;2022-11-14T07:54:23;11.98;;;8.73;;
36457;SDS011;22480;50.546;12.292;2022-11-14T07:57:07;13.27;;;9.13;;
36457;SDS011;22480;50.546;12.292;2022-11-14T07:59:52;13.10;;;9.30;;
36457;SDS011;22480;50.546;12.292;2022-11-14T08:02:36;14.95;;;10.15;;
36457;SDS011;22480;50.546;12.292;2022-11-14T08:05:21;13.52;;;10.40;;
36457;SDS011;22480;50.546;12.292;2022-11-14T08:08:05;12.85;;;9.15;;
36457;SDS011;22480;50.546;12.292;2022-11-14T08:10:49;12.93;;;9.73;;
36457;SDS011;22480;50.546;12.292;2022-11-14T08:13:33;17.00;;;10.45;;
36457;SDS011;22480;50.546;12.292;2022-11-14T08:16:17;13.68;;;9.60;;
36457;SDS011;22480;50.546;12.292;2022-11-14T08:19:01;13.55;;;9.38;;
36457;SDS011;22480;50.546;12.292;2022-11-14T08:21:45;13.20;;;9.30;;
36457;SDS011;22480;50.546;12.292;2022-11-14T08:24:29;11.10;;;8.13;;
36457;SDS011;22480;50.546;12.292;2022-11-14T08:27:14;11.60;;;8.38;;
36457;SDS011;22480;50.546;12.292;2022-11-14T08:29:58;12.77;;;8.75;;
36457;SDS011;22480;50.546;12.292;2022-11-14T08:32:42;10.88;;;8.20;;
36457;SDS011;22480;50.546;12.292;2022-11-14T08:35:26;11.48;;;8.30;;
36457;SDS011;22480;50.546;12.292;2022-11-14T08:38:10;10.63;;;7.45;;
36457;SDS011;22480;50.546;12.292;2022-11-14T08:40:58;10.15;;;7.90;;
36457;SDS011;22480;50.546;12.292;2022-11-14T08:43:42;14.70;;;7.75;;
36457;SDS011;22480;50.546;12.292;2022-11-14T08:46:27;12.77;;;8.95;;
36457;SDS011;22480;50.546;12.292;2022-11-14T08:49:11;10.75;;;7.85;;
36457;SDS011;22480;50.546;12.292;2022-11-14T08:51:55;9.73;;;7.85;;
36457;SDS011;22480;50.546;12.292;2022-11-14T08:54:40;10.10;;;7.70;;
36457;SDS011;22480;50.546;12.292;2022-11-14T08:57:25;9.95;;;7.60;;
36457;SDS011;22480;50.546;12.292;2022-11-14T09:00:09;11.07;;;8.32;;
36457;SDS011;22480;50.546;12.292;2022-11-14T09:02:53;9.48;;;7.10;;
36457;SDS011;22480;50.546;12.292;2022-11-14T09:05:38;10.02;;;7.78;;
36457;SDS011;22480;50.546;12.292;2022-11-14T09:08:22;11.38;;;8.80;;
36457;SDS011;22480;50.546;12.292;2022-11-14T09:11:07;9.68;;;7.85;;
36457;SDS011;22480;50.546;12.292;2022-11-14T09:13:51;12.82;;;7.60;;
36457;SDS011;22480;50.546;12.292;2022-11-14T09:16:35;10.45;;;7.63;;
36457;SDS011;22480;50.546;12.292;2022-11-14T09:19:19;12.93;;;9.10;;
36457;SDS011;22480;50.546;12.292;2022-11-14T09:22:04;12.70;;;9.25;;
36457;SDS011;22480;50.546;12.292;2022-11-14T09:24:48;10.50;;;8.00;;
36457;SDS011;22480;50.546;12.292;2022-11-14T09:27:32;10.23;;;8.07;;
36457;SDS011;22480;50.546;12.292;2022-11-14T09:30:16;9.95;;;7.65;;
36457;SDS011;22480;50.546;12.292;2022-11-14T09:33:02;10.65;;;7.60;;
36457;SDS011;22480;50.546;12.292;2022-11-14T09:35:47;10.57;;;7.07;;
36457;SDS011;22480;50.546;12.292;2022-11-14T09:38:31;10.88;;;7.78;;
36457;SDS011;22480;50.546;12.292;2022-11-14T09:41:26;9.23;;;7.18;;
36457;SDS011;22480;50.546;12.292;2022-11-14T09:47:19;8.90;;;6.43;;
36457;SDS011;22480;50.546;12.292;2022-11-14T09:50:12;8.52;;;6.25;;
36457;SDS011;22480;50.546;12.292;2022-11-14T09:53:04;8.67;;;6.33;;
36457;SDS011;22480;50.546;12.292;2022-11-14T09:55:53;6.70;;;5.95;;
36457;SDS011;22480;50.546;12.292;2022-11-14T09:58:38;6.50;;;5.55;;
36457;SDS011;22480;50.546;12.292;2022-11-14T10:01:37;6.30;;;5.10;;
36457;SDS011;22480;50.546;12.292;2022-11-14T10:04:42;6.65;;;5.50;;
36457;SDS011;22480;50.546;12.292;2022-11-14T10:16:19;4.93;;;4.22;;
36457;SDS011;22480;50.546;12.292;2022-11-14T10:19:23;5.78;;;4.32;;
36457;SDS011;22480;50.546;12.292;2022-11-14T10:22:34;5.63;;;4.25;;
36457;SDS011;22480;50.546;12.292;2022-11-14T10:43:34;6.32;;;5.07;;
36457;SDS011;22480;50.546;12.292;2022-11-14T10:46:38;4.53;;;3.95;;
36457;SDS011;22480;50.546;12.292;2022-11-14T10:49:29;5.15;;;4.45;;
36457;SDS011;22480;50.546;12.292;2022-11-14T10:52:15;6.30;;;4.75;;
36457;SDS011;22480;50.546;12.292;2022-11-14T10:55:05;5.70;;;4.53;;
36457;SDS011;22480;50.546;12.292;2022-11-14T10:57:56;5.72;;;5.03;;
36457;SDS011;22480;50.546;12.292;2022-11-14T11:00:40;5.90;;;4.97;;
36457;SDS011;22480;50.546;12.292;2022-11-14T11:03:41;12.32;;;5.15;;
36457;SDS011;22480;50.546;12.292;2022-11-14T11:06:26;6.78;;;6.07;;
36457;SDS011;22480;50.546;12.292;2022-11-14T11:09:22;6.25;;;5.03;;
36457;SDS011;22480;50.546;12.292;2022-11-14T11:21:09;8.70;;;5.53;;
36457;SDS011;22480;50.546;12.292;2022-11-14T11:23:56;4.45;;;3.83;;
36457;SDS011;22480;50.546;12.292;2022-11-14T11:26:40;4.25;;;3.80;;
36457;SDS011;22480;50.546;12.292;2022-11-14T11:29:24;4.38;;;3.97;;
36457;SDS011;22480;50.546;12.292;2022-11-14T11:32:08;5.00;;;4.47;;
36457;SDS011;22480;50.546;12.292;2022-11-14T11:34:53;5.18;;;4.60;;
36457;SDS011;22480;50.546;12.292;2022-11-14T11:37:40;4.20;;;3.70;;
36457;SDS011;22480;50.546;12.292;2022-11-14T11:40:38;3.42;;;2.88;;
36457;SDS011;22480;50.546;12.292;2022-11-14T11:46:54;3.92;;;3.00;;
36457;SDS011;22480;50.546;12.292;2022-11-14T11:52:31;4.05;;;3.55;;
36457;SDS011;22480;50.546;12.292;2022-11-14T11:55:28;4.57;;;3.40;;
36457;SDS011;22480;50.546;12.292;2022-11-14T12:01:09;4.30;;;3.80;;
36457;SDS011;22480;50.546;12.292;2022-11-14T12:03:55;3.50;;;3.15;;
36457;SDS011;22480;50.546;12.292;2022-11-14T12:06:42;3.65;;;3.30;;
36457;SDS011;22480;50.546;12.292;2022-11-14T12:09:37;3.80;;;3.15;;
36457;SDS011;22480;50.546;12.292;2022-11-14T12:12:27;3.65;;;3.30;;
36457;SDS011;22480;50.546;12.292;2022-11-14T12:15:50;3.88;;;3.47;;
36457;SDS011;22480;50.546;12.292;2022-11-14T12:18:55;4.63;;;3.95;;
36457;SDS011;22480;50.546;12.292;2022-11-14T12:22:15;4.60;;;3.78;;
36457;SDS011;22480;50.546;12.292;2022-11-14T12:32:06;5.63;;;3.70;;
36457;SDS011;22480;50.546;12.292;2022-11-14T12:34:55;4.75;;;3.45;;
36457;SDS011;22480;50.546;12.292;2022-11-14T12:37:43;4.28;;;3.88;;
36457;SDS011;22480;50.546;12.292;2022-11-14T12:40:33;4.00;;;3.45;;
36457;SDS011;22480;50.546;12.292;2022-11-14T12:43:33;4.43;;;3.40;;
36457;SDS011;22480;50.546;12.292;2022-11-14T12:46:28;4.20;;;3.78;;
36457;SDS011;22480;50.546;12.292;2022-11-14T12:52:51;4.75;;;3.95;;
36457;SDS011;22480;50.546;12.292;2022-11-14T12:56:01;5.95;;;4.30;;
36457;SDS011;22480;50.546;12.292;2022-11-14T13:10:27;4.68;;;3.85;;
36457;SDS011;22480;50.546;12.292;2022-11-14T13:13:14;6.43;;;4.57;;
36457;SDS011;22480;50.546;12.292;2022-11-14T13:16:25;5.93;;;5.13;;
36457;SDS011;22480;50.546;12.292;2022-11-14T13:19:32;5.68;;;5.07;;
36457;SDS011;22480;50.546;12.292;2022-11-14T13:22:41;6.13;;;4.68;;
36457;SDS011;22480;50.546;12.292;2022-11-14T13:25:27;5.95;;;4.75;;
36457;SDS011;22480;50.546;12.292;2022-11-14T13:31:24;6.05;;;4.90;;
36457;SDS011;22480;50.546;12.292;2022-11-14T13:40:22;6.05;;;4.60;;
36457;SDS011;22480;50.546;12.292;2022-11-14T13:50:11;5.20;;;4.50;;
36457;SDS011;22480;50.546;12.292;2022-11-14T13:52:59;4.35;;;3.95;;
36457;SDS011;22480;50.546;12.292;2022-11-14T14:08:15;4.70;;;4.20;;
36457;SDS011;22480;50.546;12.292;2022-11-14T14:17:08;7.53;;;3.90;;
36457;SDS011;22480;50.546;12.292;2022-11-14T14:26:01;5.13;;;4.63;;
36457;SDS011;22480;50.546;12.292;2022-11-14T14:32:25;4.32;;;3.92;;
36457;SDS011;22480;50.546;12.292;2022-11-14T14:38:11;7.65;;;5.18;;
36457;SDS011;22480;50.546;12.292;2022-11-14T14:41:04;5.68;;;4.72;;
36457;SDS011;22480;50.546;12.292;2022-11-14T14:43:50;6.95;;;5.55;;
36457;SDS011;22480;50.546;12.292;2022-11-14T14:46:37;8.57;;;5.55;;
36457;SDS011;22480;50.546;12.292;2022-11-14T14:49:26;7.13;;;5.70;;
36457;SDS011;22480;50.546;12.292;2022-11-14T14:52:18;7.88;;;5.22;;
36457;SDS011;22480;50.546;12.292;2022-11-14T14:55:17;7.82;;;5.38;;
36457;SDS011;22480;50.546;12.292;2022-11-14T15:01:13;8.18;;;6.18;;
36457;SDS011;22480;50.546;12.292;2022-11-14T15:04:04;10.02;;;6.35;;
36457;SDS011;22480;50.546;12.292;2022-11-14T15:06:50;8.45;;;6.95;;
36457;SDS011;22480;50.546;12.292;2022-11-14T15:09:36;9.48;;;7.18;;
36457;SDS011;22480;50.546;12.292;2022-11-14T15:12:21;12.55;;;8.90;;
36457;SDS011;22480;50.546;12.292;2022-11-14T15:15:11;12.07;;;8.95;;
36457;SDS011;22480;50.546;12.292;2022-11-14T15:17:56;12.02;;;9.77;;
36457;SDS011;22480;50.546;12.292;2022-11-14T15:20:54;13.88;;;9.55;;
36457;SDS011;22480;50.546;12.292;2022-11-14T15:23:59;12.95;;;9.40;;
36457;SDS011;22480;50.546;12.292;2022-11-14T15:26:46;14.02;;;10.45;;
36457;SDS011;22480;50.546;12.292;2022-11-14T15:29:33;16.20;;;12.20;;
36457;SDS011;22480;50.546;12.292;2022-11-14T15:32:21;18.48;;;12.35;;
36457;SDS011;22480;50.546;12.292;2022-11-14T15:44:04;15.73;;;11.82;;
36457;SDS011;22480;50.546;12.292;2022-11-14T15:46:48;18.73;;;12.02;;
36457;SDS011;22480;50.546;12.292;2022-11-14T15:49:33;15.15;;;11.18;;
36457;SDS011;22480;50.546;12.292;2022-11-14T15:52:23;17.15;;;12.52;;
36457;SDS011;22480;50.546;12.292;2022-11-14T15:55:18;21.30;;;12.88;;
36457;SDS011;22480;50.546;12.292;2022-11-14T15:58:06;19.00;;;13.07;;
36457;SDS011;22480;50.546;12.292;2022-11-14T16:00:54;19.08;;;13.32;;
36457;SDS011;22480;50.546;12.292;2022-11-14T16:03:39;19.23;;;13.35;;
36457;SDS011;22480;50.546;12.292;2022-11-14T16:06:27;18.70;;;12.68;;
36457;SDS011;22480;50.546;12.292;2022-11-14T16:09:15;20.33;;;14.25;;
36457;SDS011;22480;50.546;12.292;2022-11-14T16:12:01;22.15;;;14.43;;
36457;SDS011;22480;50.546;12.292;2022-11-14T16:14:46;21.20;;;14.35;;
36457;SDS011;22480;50.546;12.292;2022-11-14T16:17:33;20.63;;;13.23;;
36457;SDS011;22480;50.546;12.292;2022-11-14T16:20:24;21.88;;;14.15;;
36457;SDS011;22480;50.546;12.292;2022-11-14T16:23:11;20.50;;;13.88;;
36457;SDS011;22480;50.546;12.292;2022-11-14T16:25:56;22.88;;;16.35;;
36457;SDS011;22480;50.546;12.292;2022-11-14T16:28:40;20.83;;;14.85;;
36457;SDS011;22480;50.546;12.292;2022-11-14T16:31:24;22.67;;;13.35;;
36457;SDS011;22480;50.546;12.292;2022-11-14T16:34:09;20.65;;;15.05;;
36457;SDS011;22480;50.546;12.292;2022-11-14T16:37:08;21.45;;;15.18;;
36457;SDS011;22480;50.546;12.292;2022-11-14T16:39:55;22.13;;;15.85;;
36457;SDS011;22480;50.546;12.292;2022-11-14T16:42:39;23.92;;;15.98;;
36457;SDS011;22480;50.546;12.292;2022-11-14T16:45:24;23.95;;;15.98;;
36457;SDS011;22480;50.546;12.292;2022-11-14T16:48:09;19.83;;;14.30;;
36457;SDS011;22480;50.546;12.292;2022-11-14T16:50:54;22.70;;;14.40;;
36457;SDS011;22480;50.546;12.292;2022-11-14T16:53:38;22.63;;;14.95;;
36457;SDS011;22480;50.546;12.292;2022-11-14T16:56:22;24.85;;;15.98;;
36457;SDS011;22480;50.546;12.292;2022-11-14T16:59:07;23.85;;;16.10;;
36457;SDS011;22480;50.546;12.292;2022-11-14T17:01:52;23.10;;;15.63;;
36457;SDS011;22480;50.546;12.292;2022-11-14T17:04:36;21.67;;;14.18;;
36457;SDS011;22480;50.546;12.292;2022-11-14T17:07:20;21.13;;;13.77;;
36457;SDS011;22480;50.546;12.292;2022-11-14T17:10:05;18.17;;;13.35;;
36457;SDS011;22480;50.546;12.292;2022-11-14T17:12:50;20.02;;;13.20;;
36457;SDS011;22480;50.546;12.292;2022-11-14T17:15:34;21.33;;;13.93;;
36457;SDS011;22480;50.546;12.292;2022-11-14T17:18:18;19.45;;;13.57;;
36457;SDS011;22480;50.546;12.292;2022-11-14T17:21:03;20.05;;;13.63;;
36457;SDS011;22480;50.546;12.292;2022-11-14T17:23:52;19.45;;;12.57;;
36457;SDS011;22480;50.546;12.292;2022-11-14T17:26:38;18.35;;;12.50;;
36457;SDS011;22480;50.546;12.292;2022-11-14T17:29:23;19.92;;;13.25;;
36457;SDS011;22480;50.546;12.292;2022-11-14T17:32:07;19.88;;;13.18;;
36457;SDS011;22480;50.546;12.292;2022-11-14T17:34:51;18.20;;;13.10;;
36457;SDS011;22480;50.546;12.292;2022-11-14T17:37:35;20.08;;;13.05;;
36457;SDS011;22480;50.546;12.292;2022-11-14T17:40:19;16.67;;;11.88;;
36457;SDS011;22480;50.546;12.292;2022-11-14T17:43:03;21.80;;;13.35;;
36457;SDS011;22480;50.546;12.292;2022-11-14T17:45:54;20.30;;;12.32;;
36457;SDS011;22480;50.546;12.292;2022-11-14T17:48:39;20.38;;;13.50;;
36457;SDS011;22480;50.546;12.292;2022-11-14T17:51:23;18.90;;;13.32;;
36457;SDS011;22480;50.546;12.292;2022-11-14T17:54:08;22.85;;;13.32;;
36457;SDS011;22480;50.546;12.292;2022-11-14T17:56:52;19.40;;;13.35;;
36457;SDS011;22480;50.546;12.292;2022-11-14T17:59:37;21.48;;;15.40;;
36457;SDS011;22480;50.546;12.292;2022-11-14T18:02:21;21.95;;;15.70;;
36457;SDS011;22480;50.546;12.292;2022-11-14T18:05:06;25.52;;;15.82;;
36457;SDS011;22480;50.546;12.292;2022-11-14T18:07:50;22.73;;;15.40;;
36457;SDS011;22480;50.546;12.292;2022-11-14T18:10:34;23.05;;;14.65;;
36457;SDS011;22480;50.546;12.292;2022-11-14T18:13:19;20.38;;;14.75;;
36457;SDS011;22480;50.546;12.292;2022-11-14T18:16:07;22.65;;;13.93;;
36457;SDS011;22480;50.546;12.292;2022-11-14T18:18:55;20.73;;;14.30;;
36457;SDS011;22480;50.546;12.292;2022-11-14T18:21:39;22.08;;;13.05;;
36457;SDS011;22480;50.546;12.292;2022-11-14T18:24:25;21.50;;;14.30;;